createdAt,value
2022-12-23T00:01:25.106Z,98636.00
2022-12-23T00:03:53.065Z,98637.25
2022-12-23T00:06:20.483Z,98624.50
2022-12-23T00:08:47.580Z,98621.78
2022-12-23T00:11:19.816Z,98632.00
2022-12-23T00:13:47.178Z,98631.19
2022-12-23T00:16:15.212Z,98628.03
2022-12-23T00:18:42.983Z,98629.94
2022-12-23T00:21:13.166Z,98627.41
2022-12-23T00:23:43.697Z,98620.91
2022-12-23T00:26:23.055Z,98621.53
2022-12-23T00:28:50.873Z,98625.94
2022-12-23T00:31:19.119Z,98629.28
2022-12-23T00:33:49.176Z,98626.56
2022-12-23T00:36:25.227Z,98617.09
2022-12-23T00:38:52.339Z,98617.97
2022-12-23T00:41:20.905Z,98613.13
2022-12-23T00:43:47.997Z,98612.75
2022-12-23T00:46:15.052Z,98616.91
2022-12-23T00:48:42.126Z,98616.09
2022-12-23T00:51:09.257Z,98614.38
2022-12-23T00:53:36.404Z,98616.72
2022-12-23T00:56:03.423Z,98617.31
2022-12-23T00:58:30.505Z,98616.91
2022-12-23T01:00:57.594Z,98619.41
2022-12-23T01:03:24.929Z,98629.69
2022-12-23T01:05:51.973Z,98620.03
2022-12-23T01:08:18.963Z,98629.47
2022-12-23T01:10:45.996Z,98637.44
2022-12-23T01:13:13.031Z,98622.16
2022-12-23T01:15:40.056Z,98621.13
2022-12-23T01:18:07.233Z,98624.69
2022-12-23T01:20:34.244Z,98632.19
2022-12-23T01:23:01.262Z,98635.75
2022-12-23T01:25:28.333Z,98633.66
2022-12-23T01:27:55.295Z,98639.53
2022-12-23T01:30:22.422Z,98640.16
2022-12-23T01:32:49.570Z,98636.63
2022-12-23T01:35:16.720Z,98639.72
2022-12-23T01:37:43.748Z,98648.28
2022-12-23T01:40:11.033Z,98645.38
2022-12-23T01:42:38.078Z,98639.94
2022-12-23T01:45:12.747Z,98650.38
2022-12-23T01:47:55.643Z,98652.91
2022-12-23T01:50:28.874Z,98657.09
2022-12-23T01:53:08.628Z,98659.84
2022-12-23T01:55:41.053Z,98657.31
2022-12-23T01:58:31.986Z,98659.31
2022-12-23T02:00:59.121Z,98667.94
2022-12-23T02:03:26.792Z,98668.78
2022-12-23T02:05:53.844Z,98670.00
2022-12-23T02:08:20.822Z,98677.59
2022-12-23T02:11:24.352Z,98685.94
2022-12-23T02:14:26.164Z,98680.31
2022-12-23T02:17:09.841Z,98686.38
2022-12-23T02:19:52.708Z,98684.53
2022-12-23T02:22:36.366Z,98679.91
2022-12-23T02:25:31.070Z,98683.22
2022-12-23T02:28:13.362Z,98684.72
2022-12-23T02:30:49.456Z,98694.56
2022-12-23T02:33:42.205Z,98711.50
2022-12-23T02:36:15.327Z,98718.81
2022-12-23T02:38:54.335Z,98711.22
2022-12-23T02:41:45.322Z,98706.81
2022-12-23T02:44:40.389Z,98718.94
2022-12-23T02:47:33.087Z,98724.00
2022-12-23T02:50:06.033Z,98721.66
2022-12-23T02:52:36.234Z,98716.03
2022-12-23T02:55:10.017Z,98723.34
2022-12-23T02:57:41.372Z,98719.31
2022-12-23T03:00:09.147Z,98718.31
2022-12-23T03:02:39.627Z,98720.19
2022-12-23T03:05:24.401Z,98710.78
2022-12-23T03:07:54.878Z,98718.31
2022-12-23T03:10:28.243Z,98718.31
2022-12-23T03:13:41.517Z,98721.41
2022-12-23T03:16:26.680Z,98727.91
2022-12-23T03:19:24.897Z,98728.34
2022-12-23T03:22:19.049Z,98732.31
2022-12-23T03:25:16.959Z,98728.72
2022-12-23T03:27:59.627Z,98736.63
2022-12-23T03:30:28.942Z,98736.84
2022-12-23T03:33:02.650Z,98741.50
2022-12-23T03:35:40.699Z,98742.94
2022-12-23T03:38:10.446Z,98739.16
2022-12-23T03:40:44.780Z,98738.31
2022-12-23T03:43:27.122Z,98746.09
2022-12-23T03:45:59.974Z,98738.31
2022-12-23T03:48:33.604Z,98746.66
2022-12-23T03:51:07.203Z,98751.72
2022-12-23T03:53:51.910Z,98760.31
2022-12-23T03:56:24.818Z,98762.66
2022-12-23T03:58:57.868Z,98767.06
2022-12-23T04:01:36.167Z,98761.84
2022-12-23T04:04:14.731Z,98756.41
2022-12-23T04:06:51.769Z,98763.72
2022-12-23T04:09:22.371Z,98760.59
2022-12-23T04:11:50.401Z,98776.09
2022-12-23T04:14:21.984Z,98788.19
2022-12-23T04:16:56.304Z,98800.00
2022-12-23T04:19:23.386Z,98795.56
2022-12-23T04:21:50.406Z,98793.25
2022-12-23T04:24:17.398Z,98803.72
2022-12-23T04:26:44.412Z,98795.56
2022-12-23T04:29:11.596Z,98793.03
2022-12-23T04:31:38.682Z,98796.63
2022-12-23T04:34:05.812Z,98819.44
2022-12-23T04:36:32.906Z,98817.81
2022-12-23T04:38:59.941Z,98815.72
2022-12-23T04:41:27.087Z,98808.78
2022-12-23T04:43:54.116Z,98812.75
2022-12-23T04:46:21.122Z,98819.50
2022-12-23T04:48:48.177Z,98824.75
2022-12-23T04:51:15.361Z,98819.09
2022-12-23T04:53:42.323Z,98805.31
2022-12-23T04:56:09.356Z,98799.88
2022-12-23T04:58:36.351Z,98802.59
2022-12-23T05:01:08.956Z,98805.50
2022-12-23T05:03:37.114Z,98801.06
2022-12-23T05:06:04.865Z,98793.56
2022-12-23T05:08:32.427Z,98792.91
2022-12-23T05:10:59.614Z,98793.56
2022-12-23T05:13:26.806Z,98792.91
2022-12-23T05:15:54.862Z,98795.63
2022-12-23T05:18:22.668Z,98801.72
2022-12-23T05:20:51.028Z,98800.81
2022-12-23T05:23:18.145Z,98797.34
2022-12-23T05:25:51.175Z,98788.69
2022-12-23T05:28:19.405Z,98797.34
2022-12-23T05:30:46.689Z,98797.72
2022-12-23T05:33:14.609Z,98801.47
2022-12-23T05:35:41.652Z,98808.97
2022-12-23T05:38:08.742Z,98797.47
2022-12-23T05:40:35.755Z,98796.56
2022-12-23T05:43:03.183Z,98803.78
2022-12-23T05:45:30.350Z,98812.63
2022-12-23T05:47:57.441Z,98815.91
2022-12-23T05:50:24.420Z,98829.31
2022-12-23T05:52:51.448Z,98837.66
2022-12-23T05:55:18.458Z,98833.09
2022-12-23T05:57:45.557Z,98833.91
2022-12-23T06:00:13.215Z,98834.38
2022-12-23T06:02:40.931Z,98833.78
2022-12-23T06:05:09.036Z,98828.75
2022-12-23T06:07:36.498Z,98830.25
2022-12-23T06:10:05.155Z,98839.91
2022-12-23T06:12:32.252Z,98844.47
2022-12-23T06:14:59.450Z,98845.91
2022-12-23T06:17:26.427Z,98840.94
2022-12-23T06:19:53.517Z,98844.97
2022-12-23T06:22:20.474Z,98848.91
2022-12-23T06:24:48.168Z,98851.41
2022-12-23T06:27:16.031Z,98851.22
2022-12-23T06:29:43.062Z,98855.63
2022-12-23T06:32:10.262Z,98848.31
2022-12-23T06:34:37.692Z,98865.25
2022-12-23T06:37:06.023Z,98864.75
2022-12-23T06:39:33.189Z,98874.59
2022-12-23T06:42:00.289Z,98873.53
2022-12-23T06:44:30.333Z,98874.72
2022-12-23T06:46:57.432Z,98873.63
2022-12-23T06:49:24.536Z,98879.25
2022-12-23T06:51:51.637Z,98884.69
2022-12-23T06:54:18.851Z,98873.81
2022-12-23T06:56:46.195Z,98886.38
2022-12-23T06:59:13.380Z,98885.75
2022-12-23T07:01:40.726Z,98887.59
2022-12-23T07:04:08.505Z,98892.19
2022-12-23T07:06:35.710Z,98892.47
2022-12-23T07:09:02.842Z,98894.66
2022-12-23T07:11:29.825Z,98901.47
2022-12-23T07:13:57.575Z,98898.28
2022-12-23T07:16:24.691Z,98895.75
2022-12-23T07:18:52.005Z,98893.59
2022-12-23T07:21:26.753Z,98905.31
2022-12-23T07:23:55.819Z,98904.66
2022-12-23T07:26:22.867Z,98896.22
2022-12-23T07:28:49.882Z,98899.44
2022-12-23T07:31:17.047Z,98894.00
2022-12-23T07:33:44.181Z,98885.53
2022-12-23T07:36:11.205Z,98891.84
2022-12-23T07:38:38.336Z,98881.81
2022-12-23T07:41:05.399Z,98888.06
2022-12-23T07:43:32.492Z,98900.75
2022-12-23T07:46:00.586Z,98896.13
2022-12-23T07:48:27.939Z,98898.28
2022-12-23T07:51:01.158Z,98912.16
2022-12-23T07:53:28.710Z,98909.63
2022-12-23T07:55:57.040Z,98907.88
2022-12-23T07:58:24.783Z,98922.78
2022-12-23T08:00:59.475Z,98937.03
2022-12-23T08:03:26.707Z,98936.38
2022-12-23T08:06:11.372Z,98944.34
2022-12-23T08:08:39.611Z,98944.16
2022-12-23T08:11:09.249Z,98936.38
2022-12-23T08:13:38.897Z,98941.72
2022-12-23T08:16:07.233Z,98947.16
2022-12-23T08:18:37.047Z,98953.25
2022-12-23T08:21:07.603Z,98935.88
2022-12-23T08:23:34.790Z,98941.31
2022-12-23T08:26:07.969Z,98938.69
2022-12-23T08:28:36.540Z,98933.81
2022-12-23T08:31:06.487Z,98941.88
2022-12-23T08:33:34.580Z,98939.16
2022-12-23T08:36:01.716Z,98935.47
2022-12-23T08:38:28.983Z,98932.28
2022-12-23T08:40:56.080Z,98932.75
2022-12-23T08:43:23.348Z,98926.94
2022-12-23T08:45:50.922Z,98926.34
2022-12-23T08:48:18.085Z,98917.16
2022-12-23T08:50:46.628Z,98924.53
2022-12-23T08:53:14.275Z,98934.59
2022-12-23T08:55:43.749Z,98926.03
2022-12-23T08:58:12.588Z,98925.56
2022-12-23T09:00:39.933Z,98938.81
2022-12-23T09:03:08.331Z,98939.63
2022-12-23T09:05:40.779Z,98935.69
2022-12-23T09:08:09.033Z,98934.47
2022-12-23T09:10:41.780Z,98932.84
2022-12-23T09:13:10.700Z,98936.22
2022-12-23T09:15:42.967Z,98932.66
2022-12-23T09:18:11.263Z,98921.63
2022-12-23T09:20:38.714Z,98925.25
2022-12-23T09:23:06.343Z,98929.28
2022-12-23T09:25:35.213Z,98929.97
2022-12-23T09:28:02.978Z,98921.41
2022-12-23T09:30:30.059Z,98921.28
2022-12-23T09:32:57.041Z,98932.38
2022-12-23T09:35:25.203Z,98922.56
2022-12-23T09:37:52.316Z,98936.25
2022-12-23T09:40:21.311Z,98921.44
2022-12-23T09:43:02.908Z,98917.47
2022-12-23T09:45:55.933Z,98905.75
2022-12-23T09:48:28.552Z,98911.25
2022-12-23T09:50:55.863Z,98913.13
2022-12-23T09:53:32.952Z,98910.44
2022-12-23T09:56:06.456Z,98909.00
2022-12-23T09:58:48.667Z,98910.94
2022-12-23T10:01:29.027Z,98915.78
2022-12-23T10:04:07.101Z,98921.03
2022-12-23T10:06:38.256Z,98929.22
2022-12-23T10:09:07.788Z,98933.66
2022-12-23T10:11:39.811Z,98925.28
2022-12-23T10:14:18.155Z,98924.44
2022-12-23T10:16:50.690Z,98934.94
2022-12-23T10:19:25.203Z,98921.09
2022-12-23T10:21:59.969Z,98918.22
2022-12-23T10:24:38.508Z,98911.31
2022-12-23T10:27:29.105Z,98913.59
2022-12-23T10:30:13.908Z,98910.69
2022-12-23T10:33:05.097Z,98893.25
2022-12-23T10:35:42.942Z,98888.25
2022-12-23T10:38:15.579Z,98881.50
2022-12-23T10:41:16.850Z,98881.69
2022-12-23T10:44:05.473Z,98879.16
2022-12-23T10:46:57.648Z,98867.81
2022-12-23T10:50:09.706Z,98877.66
2022-12-23T10:52:41.493Z,98876.63
2022-12-23T10:55:27.237Z,98871.38
2022-12-23T10:58:03.476Z,98870.13
2022-12-23T11:00:30.684Z,98859.22
2022-12-23T11:03:20.196Z,98845.00
2022-12-23T11:05:50.663Z,98851.66
2022-12-23T11:08:19.886Z,98845.38
2022-12-23T11:10:47.850Z,98840.34
2022-12-23T11:13:39.563Z,98832.97
2022-12-23T11:16:27.961Z,98842.38
2022-12-23T11:18:59.627Z,98831.28
2022-12-23T11:21:27.629Z,98827.28
2022-12-23T11:24:16.715Z,98832.31
2022-12-23T11:26:47.181Z,98832.75
2022-12-23T11:29:27.445Z,98828.81
2022-12-23T11:31:55.855Z,98830.69
2022-12-23T11:34:25.962Z,98821.44
2022-12-23T11:37:00.290Z,98817.91
2022-12-23T11:39:34.942Z,98809.47
2022-12-23T11:42:11.797Z,98795.63
2022-12-23T11:44:40.784Z,98787.84
2022-12-23T11:47:23.740Z,98786.38
2022-12-23T11:49:54.454Z,98781.75
2022-12-23T11:52:24.543Z,98791.22
2022-12-23T11:55:01.010Z,98782.19
2022-12-23T11:57:47.728Z,98766.91
2022-12-23T12:00:22.551Z,98764.81
2022-12-23T12:02:55.259Z,98749.25
2022-12-23T12:05:33.635Z,98747.38
2022-12-23T12:08:05.456Z,98744.47
2022-12-23T12:10:34.960Z,98734.38
2022-12-23T12:13:08.377Z,98732.91
2022-12-23T12:15:43.416Z,98729.19
2022-12-23T12:18:15.473Z,98723.09
2022-12-23T12:20:46.518Z,98725.81
2022-12-23T12:23:22.715Z,98727.28
2022-12-23T12:26:33.426Z,98718.53
2022-12-23T12:29:16.106Z,98722.31
2022-12-23T12:31:47.536Z,98702.75
2022-12-23T12:34:42.198Z,98697.28
2022-12-23T12:37:18.565Z,98682.59
2022-12-23T12:39:53.780Z,98670.00
2022-12-23T12:42:33.533Z,98673.59
2022-12-23T12:45:22.551Z,98675.66
2022-12-23T12:48:18.203Z,98678.19
2022-12-23T12:51:09.233Z,98683.63
2022-12-23T12:53:38.123Z,98688.28
2022-12-23T12:56:26.385Z,98680.91
2022-12-23T12:58:53.516Z,98679.22
2022-12-23T13:01:27.621Z,98675.63
2022-12-23T13:04:13.174Z,98677.94
2022-12-23T13:06:43.165Z,98688.44
2022-12-23T13:09:34.532Z,98688.63
2022-12-23T13:12:17.530Z,98683.38
2022-12-23T13:14:56.249Z,98673.75
2022-12-23T13:17:27.413Z,98677.72
2022-12-23T13:20:17.271Z,98676.44
2022-12-23T13:22:48.604Z,98680.84
2022-12-23T13:25:22.471Z,98664.25
2022-12-23T13:28:29.029Z,98657.94
2022-12-23T13:31:14.457Z,98641.38
2022-12-23T13:33:44.586Z,98619.59
2022-12-23T13:36:49.046Z,98608.25
2022-12-23T13:39:38.022Z,98615.41
2022-12-23T13:42:12.721Z,98618.53
2022-12-23T13:44:40.343Z,98625.22
2022-12-23T13:47:14.514Z,98617.25
2022-12-23T13:49:52.302Z,98609.28
2022-12-23T13:52:54.725Z,98608.00
2022-12-23T13:55:36.933Z,98599.22
2022-12-23T13:58:19.955Z,98586.19
2022-12-23T14:00:56.291Z,98568.19
2022-12-23T14:03:25.530Z,98570.91
2022-12-23T14:05:53.306Z,98568.16
2022-12-23T14:08:20.489Z,98570.91
2022-12-23T14:11:14.697Z,98567.13
2022-12-23T14:13:51.064Z,98561.47
2022-12-23T14:16:20.973Z,98561.88
2022-12-23T14:18:54.879Z,98563.53
2022-12-23T14:21:42.930Z,98569.84
2022-12-23T14:24:47.190Z,98560.19
2022-12-23T14:27:29.263Z,98574.22
2022-12-23T14:30:09.257Z,98568.97
2022-12-23T14:32:52.619Z,98561.84
2022-12-23T14:35:29.733Z,98558.25
2022-12-23T14:38:14.211Z,98548.63
2022-12-23T14:41:17.727Z,98515.94
2022-12-23T14:43:44.722Z,98512.81
2022-12-23T14:46:30.392Z,98510.09
2022-12-23T14:49:29.723Z,98496.06
2022-12-23T14:51:47.271Z,98501.06
2022-12-23T14:54:15.505Z,98491.03
2022-12-23T14:57:06.347Z,98492.69
2022-12-23T15:00:08.781Z,98485.38
2022-12-23T15:02:38.974Z,98487.63
2022-12-23T15:05:06.807Z,98496.25
2022-12-23T15:07:37.563Z,98480.97
2022-12-23T15:10:07.615Z,98476.72
2022-12-23T15:12:43.575Z,98482.63
2022-12-23T15:15:17.842Z,98459.78
2022-12-23T15:17:45.393Z,98461.91
2022-12-23T15:20:26.453Z,98453.28
2022-12-23T15:22:59.858Z,98443.44
2022-12-23T15:25:30.093Z,98452.47
2022-12-23T15:28:02.193Z,98479.44
2022-12-23T15:30:37.176Z,98492.03
2022-12-23T15:33:28.232Z,98450.53
2022-12-23T15:35:55.948Z,98461.44
2022-12-23T15:38:29.405Z,98476.72
2022-12-23T15:41:15.353Z,98505.75
2022-12-23T15:43:43.321Z,98508.94
2022-12-23T15:46:18.948Z,98513.13
2022-12-23T15:48:49.597Z,98498.69
2022-12-23T15:51:49.563Z,98491.59
2022-12-23T15:54:17.049Z,98493.91
2022-12-23T15:57:13.687Z,98487.22
2022-12-23T15:59:40.824Z,98488.47
2022-12-23T16:05:08.959Z,98485.75
2022-12-23T16:07:38.919Z,98481.78
2022-12-23T16:10:17.054Z,98480.13
2022-12-23T16:12:44.565Z,98469.44
2022-12-23T16:15:30.107Z,98459.59
2022-12-23T16:18:12.214Z,98458.94
2022-12-23T16:20:46.646Z,98458.31
2022-12-23T16:23:14.481Z,98458.75
2022-12-23T16:25:50.206Z,98448.69
2022-12-23T16:28:21.729Z,98447.03
2022-12-23T16:30:55.820Z,98449.75
2022-12-23T16:33:42.980Z,98449.31
2022-12-23T16:36:25.447Z,98436.94
2022-12-23T16:38:59.367Z,98429.44
2022-12-23T16:41:26.498Z,98422.94
2022-12-23T16:43:53.511Z,98430.25
2022-12-23T16:46:22.877Z,98432.34
2022-12-23T16:49:00.691Z,98423.97
2022-12-23T16:51:31.094Z,98431.72
2022-12-23T16:53:58.134Z,98426.69
2022-12-23T16:56:29.878Z,98429.22
2022-12-23T16:58:56.960Z,98425.44
2022-12-23T17:01:27.877Z,98432.97
2022-12-23T17:03:55.494Z,98434.63
2022-12-23T17:06:23.563Z,98436.53
2022-12-23T17:08:51.649Z,98436.94
2022-12-23T17:11:23.870Z,98438.41
2022-12-23T17:13:51.256Z,98435.91
2022-12-23T17:16:20.546Z,98436.53
2022-12-23T17:18:48.638Z,98445.97
2022-12-23T17:21:18.561Z,98453.94
2022-12-23T17:23:45.811Z,98460.00
2022-12-23T17:26:12.833Z,98458.16
2022-12-23T17:28:39.938Z,98471.16
2022-12-23T17:31:13.758Z,98470.72
2022-12-23T17:33:41.987Z,98478.47
2022-12-23T17:36:10.923Z,98487.50
2022-12-23T17:38:38.173Z,98485.59
2022-12-23T17:41:05.473Z,98510.31
2022-12-23T17:43:32.485Z,98510.13
2022-12-23T17:45:59.604Z,98511.19
2022-12-23T17:48:31.615Z,98513.09
2022-12-23T17:50:59.197Z,98506.78
2022-12-23T17:53:26.363Z,98501.75
2022-12-23T17:55:53.465Z,98502.59
2022-12-23T17:58:20.566Z,98505.97
2022-12-23T18:00:47.735Z,98506.59
2022-12-23T18:03:23.363Z,98523.13
2022-12-23T18:05:54.280Z,98534.28
2022-12-23T18:08:26.273Z,98527.75
2022-12-23T18:10:53.429Z,98544.13
2022-12-23T18:13:21.264Z,98543.28
2022-12-23T18:15:49.661Z,98546.00
2022-12-23T18:18:27.234Z,98561.50
2022-12-23T18:20:58.300Z,98547.88
2022-12-23T18:23:28.321Z,98556.69
2022-12-23T18:25:56.112Z,98558.56
2022-12-23T18:28:24.328Z,98550.16
2022-12-23T18:30:52.872Z,98542.56
2022-12-23T18:33:20.080Z,98547.63
2022-12-23T18:35:49.336Z,98548.47
2022-12-23T18:38:17.880Z,98550.53
2022-12-23T18:40:45.459Z,98548.44
2022-12-23T18:43:21.842Z,98553.91
2022-12-23T18:45:53.310Z,98548.84
2022-12-23T18:48:21.642Z,98542.34
2022-12-23T18:50:48.998Z,98541.72
2022-12-23T18:53:23.638Z,98540.91
2022-12-23T18:55:52.662Z,98547.63
2022-12-23T18:58:20.601Z,98548.28
2022-12-23T19:00:49.408Z,98549.13
2022-12-23T19:03:30.440Z,98547.88
2022-12-23T19:05:59.166Z,98549.53
2022-12-23T19:08:27.656Z,98566.59
2022-12-23T19:10:56.026Z,98573.50
2022-12-23T19:13:23.958Z,98573.09
2022-12-23T19:15:51.302Z,98582.09
2022-12-23T19:18:20.267Z,98565.53
2022-12-23T19:20:48.731Z,98569.94
2022-12-23T19:23:16.318Z,98578.34
2022-12-23T19:25:52.666Z,98582.13
2022-12-23T19:28:23.113Z,98605.41
2022-12-23T19:30:50.440Z,98609.59
2022-12-23T19:33:17.693Z,98606.47
2022-12-23T19:35:45.871Z,98619.66
2022-12-23T19:38:13.005Z,98623.66
2022-12-23T19:40:40.443Z,98610.25
2022-12-23T19:43:07.744Z,98615.91
2022-12-23T19:45:34.748Z,98614.41
2022-12-23T19:48:01.963Z,98624.28
2022-12-23T19:50:29.079Z,98628.03
2022-12-23T19:52:57.225Z,98636.22
2022-12-23T19:55:24.260Z,98646.69
2022-12-23T19:57:51.315Z,98646.50
2022-12-23T20:00:18.516Z,98647.75
2022-12-23T20:02:45.753Z,98651.47
2022-12-23T20:05:12.819Z,98660.91
2022-12-23T20:07:39.854Z,98659.03
2022-12-23T20:10:07.620Z,98666.16
2022-12-23T20:12:34.629Z,98668.03
2022-12-23T20:15:01.746Z,98670.34
2022-12-23T20:17:28.846Z,98675.38
2022-12-23T20:19:55.881Z,98679.19
2022-12-23T20:22:22.893Z,98677.28
2022-12-23T20:24:49.979Z,98677.28
2022-12-23T20:27:19.088Z,98682.13
2022-12-23T20:29:48.428Z,98690.09
2022-12-23T20:32:15.473Z,98682.31
2022-12-23T20:34:42.472Z,98687.56
2022-12-23T20:37:09.547Z,98695.53
2022-12-23T20:39:39.639Z,98699.53
2022-12-23T20:42:06.786Z,98702.66
2022-12-23T20:44:37.632Z,98699.06
2022-12-23T20:47:05.769Z,98703.25
2022-12-23T20:49:33.404Z,98709.97
2022-12-23T20:52:00.784Z,98719.19
2022-12-23T20:54:32.772Z,98719.19
2022-12-23T20:57:01.898Z,98715.63
2022-12-23T20:59:29.084Z,98716.47
2022-12-23T21:01:56.669Z,98716.03
2022-12-23T21:04:23.903Z,98716.03
2022-12-23T21:06:50.936Z,98726.28
2022-12-23T21:09:17.949Z,98714.53
2022-12-23T21:11:46.763Z,98718.13
2022-12-23T21:14:15.173Z,98734.88
2022-12-23T21:16:42.977Z,98732.16
2022-12-23T21:19:18.192Z,98730.50
2022-12-23T21:21:45.881Z,98721.25
2022-12-23T21:24:13.687Z,98730.50
2022-12-23T21:26:41.226Z,98731.34
2022-12-23T21:29:10.606Z,98739.72
2022-12-23T21:31:40.944Z,98742.44
2022-12-23T21:34:08.565Z,98757.50
2022-12-23T21:36:38.635Z,98763.16
2022-12-23T21:39:06.447Z,98757.53
2022-12-23T21:41:38.231Z,98765.06
2022-12-23T21:44:05.260Z,98770.28
2022-12-23T21:46:32.244Z,98785.38
2022-12-23T21:48:59.941Z,98783.50
2022-12-23T21:51:38.588Z,98786.00
2022-12-23T21:54:07.887Z,98777.19
2022-12-23T21:56:35.520Z,98783.28
2022-12-23T21:59:10.107Z,98783.28
2022-12-23T22:01:37.686Z,98784.34
2022-12-23T22:04:05.385Z,98792.94
2022-12-23T22:06:38.809Z,98797.16
2022-12-23T22:09:07.376Z,98795.47
2022-12-23T22:11:36.766Z,98804.09
2022-12-23T22:14:06.599Z,98808.91
2022-12-23T22:16:34.857Z,98817.72
2022-12-23T22:19:03.427Z,98820.81
2022-12-23T22:21:31.950Z,98817.25
2022-12-23T22:24:00.224Z,98814.91
2022-12-23T22:26:29.803Z,98811.34
2022-12-23T22:29:00.932Z,98814.28
2022-12-23T22:31:44.745Z,98818.69
2022-12-23T22:34:17.968Z,98822.00
2022-12-23T22:36:45.328Z,98823.44
2022-12-23T22:39:21.046Z,98822.63
2022-12-23T22:41:52.343Z,98828.06
2022-12-23T22:44:20.225Z,98833.66
2022-12-23T22:46:47.741Z,98827.56
2022-12-23T22:49:15.677Z,98825.44
2022-12-23T22:51:43.857Z,98827.91
2022-12-23T22:54:11.030Z,98833.97
2022-12-23T22:56:38.179Z,98850.88
2022-12-23T22:59:05.795Z,98845.44
2022-12-23T23:01:35.084Z,98853.41
2022-12-23T23:04:03.957Z,98856.31
2022-12-23T23:06:36.063Z,98857.56
2022-12-23T23:09:17.973Z,98866.78
2022-12-23T23:11:45.087Z,98870.13
2022-12-23T23:14:12.474Z,98877.47
2022-12-23T23:16:39.936Z,98891.91
2022-12-23T23:19:07.127Z,98884.22
2022-12-23T23:21:34.419Z,98892.59
2022-12-23T23:24:01.530Z,98902.00
2022-12-23T23:26:28.565Z,98913.50
2022-12-23T23:28:56.118Z,98914.38
2022-12-23T23:34:11.752Z,98919.38
2022-12-23T23:36:39.527Z,98926.69
2022-12-23T23:39:06.543Z,98924.81
2022-12-23T23:41:33.526Z,98917.47
2022-12-23T23:44:00.634Z,98924.41
2022-12-23T23:46:27.797Z,98939.69
2022-12-23T23:48:55.033Z,98937.66
2022-12-23T23:51:22.123Z,98949.53
2022-12-23T23:53:49.232Z,98955.59
2022-12-23T23:56:22.052Z,98948.84
2022-12-23T23:58:52.146Z,98947.44
